Time;durP1;ratioP1;P1;durP2;ratioP2;P2;SDS_P1;SDS_P2;PMS_P1;PMS_P2;Temp;Humidity;BMP_temperature;BMP_pressure;BME280_temperature;BME280_humidity;BME280_pressure;Samples;Min_cycle;Max_cycle;Signal;HPM_P1;HPM_P2
2021/03/27 00:00:25;;;;;;;14.07;8.40;;;;;;;7.51;54.32;100004.47;5015336;28;20057;-67
2021/03/27 00:02:59;;;;;;;12.18;8.23;;;;;;;7.24;54.33;99965.38;5015180;28;20033;-64
2021/03/27 00:05:54;;;;;;;9.82;7.15;;;;;;;7.50;54.65;99994.78;5015778;28;20125;-66
2021/03/27 00:08:20;;;;;;;10.50;7.68;;;;;;;7.44;54.38;100006.69;5015135;28;20044;-67
2021/03/27 00:10:57;;;;;;;9.32;6.88;;;;;;;7.43;54.83;100004.97;5014561;28;20049;-66
2021/03/27 00:13:41;;;;;;;10.95;7.63;;;;;;;7.33;54.72;99999.38;5013779;28;20034;-64
2021/03/27 00:16:31;;;;;;;12.43;7.57;;;;;;;7.26;54.15;99987.44;5015425;28;20534;-67
2021/03/27 00:18:59;;;;;;;10.20;7.20;;;;;;;7.26;54.38;99998.06;5013609;28;20038;-67
2021/03/27 00:21:50;;;;;;;9.68;7.13;;;;;;;7.25;54.76;100009.69;5014662;28;20509;-66
2021/03/27 00:24:30;;;;;;;10.18;7.45;;;;;;;7.24;54.69;100007.97;5014898;28;20424;-65
2021/03/27 00:27:06;;;;;;;9.82;8.05;;;;;;;7.21;54.51;100010.81;5015274;28;20061;-66
2021/03/27 00:29:43;;;;;;;;;;;;;;;7.31;54.58;100017.28;5015316;28;20045;-66
2021/03/27 00:32:18;;;;;;;11.70;7.20;;;;;;;7.27;54.78;100013.09;5015400;28;19922;-65
2021/03/27 00:35:03;;;;;;;11.13;7.32;;;;;;;7.24;54.37;100010.63;5014911;28;20091;-65
2021/03/27 00:37:31;;;;;;;11.23;7.38;;;;;;;7.22;54.30;100017.84;5015016;28;20030;-66
2021/03/27 00:40:17;;;;;;;11.27;7.55;;;;;;;7.24;54.81;100021.28;5011517;28;20465;-67
2021/03/27 00:42:48;;;;;;;;;;;;;;;7.29;53.82;100008.53;5012122;28;20034;-67
2021/03/27 00:45:17;;;;;;;11.13;7.13;;;;;;;7.17;54.15;100009.28;5012033;28;19952;-63
2021/03/27 00:47:48;;;;;;;13.10;7.75;;;;;;;7.21;54.55;100018.78;5012315;28;20118;-66
2021/03/27 00:50:31;;;;;;;13.93;8.07;;;;;;;7.22;54.90;100011.69;5011767;28;20555;-63
2021/03/27 00:53:05;;;;;;;11.52;7.60;;;;;;;7.15;54.58;100016.53;5019193;28;20049;-66
2021/03/27 00:55:47;;;;;;;11.50;7.50;;;;;;;7.14;54.73;100020.16;5011225;28;20046;-65
2021/03/27 00:58:20;;;;;;;10.30;7.75;;;;;;;7.10;54.61;100024.81;5011976;28;20033;-66
2021/03/27 01:00:48;;;;;;;12.30;7.68;;;;;;;7.02;54.79;100008.47;5011137;28;20044;-66
2021/03/27 01:03:31;;;;;;;10.68;8.50;;;;;;;6.99;55.45;100001.53;5012105;28;20088;-67
2021/03/27 01:05:57;;;;;;;11.05;7.22;;;;;;;7.07;54.92;100018.84;4996865;28;20413;-67
2021/03/27 01:08:25;;;;;;;11.05;7.57;;;;;;;7.06;55.38;100027.78;5010958;28;20034;-66
2021/03/27 01:10:58;;;;;;;12.05;7.68;;;;;;;7.07;55.23;100018.84;5011309;28;20029;-69
2021/03/27 01:13:34;;;;;;;10.02;7.63;;;;;;;7.06;55.16;100006.47;5010662;28;20041;-66
2021/03/27 01:16:04;;;;;;;10.38;7.75;;;;;;;7.03;54.78;100013.72;5011536;28;20044;-67
2021/03/27 01:18:54;;;;;;;10.35;7.20;;;;;;;7.07;55.48;100014.34;5010985;28;20092;-67
2021/03/27 01:21:26;;;;;;;9.25;7.13;;;;;;;7.01;55.27;100012.06;5011036;28;20041;-66
2021/03/27 01:24:07;;;;;;;12.13;7.47;;;;;;;7.06;55.28;100014.47;5011463;28;20033;-67
2021/03/27 01:26:54;;;;;;;15.15;7.97;;;;;;;6.95;55.23;99997.34;5010650;28;20533;-67
2021/03/27 01:29:33;;;;;;;11.48;7.90;;;;;;;7.03;55.45;100021.69;5011298;28;20088;-66
2021/03/27 01:32:22;;;;;;;11.40;7.93;;;;;;;7.08;54.77;100020.53;5006338;28;20049;-67
2021/03/27 01:35:03;;;;;;;12.10;7.88;;;;;;;7.10;55.06;100029.28;5003121;28;20038;-67
2021/03/27 01:37:48;;;;;;;10.52;7.13;;;;;;;7.07;54.71;100030.31;5010361;28;20036;-68
2021/03/27 01:40:27;;;;;;;10.35;7.03;;;;;;;7.07;55.30;100024.16;5011093;28;20038;-66
2021/03/27 01:43:34;;;;;;;14.18;7.30;;;;;;;7.07;55.05;100030.31;5025873;28;20631;-64
2021/03/27 01:46:30;;;;;;;11.05;7.45;;;;;;;7.06;54.88;100030.44;5010972;28;20038;-67
2021/03/27 01:49:10;;;;;;;11.37;7.47;;;;;;;6.96;54.62;100022.16;5004446;28;20037;-67
2021/03/27 01:51:42;;;;;;;12.15;7.90;;;;;;;6.95;54.87;100031.94;5009363;28;20037;-66
2021/03/27 01:54:11;;;;;;;12.55;8.73;;;;;;;6.93;54.94;100033.84;5011099;28;20076;-66
2021/03/27 01:57:12;;;;;;;11.55;7.97;;;;;;;6.99;55.46;100033.50;5010471;28;20137;-66
2021/03/27 01:59:48;;;;;;;10.45;7.55;;;;;;;6.96;55.18;100038.97;4999667;28;20069;-66
2021/03/27 02:02:32;;;;;;;10.50;7.60;;;;;;;6.95;54.84;100041.75;5010082;28;20037;-66
2021/03/27 02:05:07;;;;;;;12.32;7.90;;;;;;;6.81;55.11;100021.31;5010693;28;20073;-67
2021/03/27 02:07:49;;;;;;;13.03;8.07;;;;;;;6.88;54.86;100042.13;5010480;28;20045;-66
2021/03/27 02:10:38;;;;;;;12.45;8.10;;;;;;;6.86;55.14;100044.00;5010588;28;20072;-66
2021/03/27 02:13:10;;;;;;;11.05;7.55;;;;;;;6.83;54.96;100046.03;5010448;28;20042;-67
2021/03/27 02:16:08;;;;;;;11.48;7.85;;;;;;;6.90;54.68;100044.69;5010144;28;20065;-67
2021/03/27 02:18:48;;;;;;;11.98;7.68;;;;;;;6.87;54.92;100044.88;5010031;28;20543;-66
2021/03/27 02:21:57;;;;;;;13.73;8.50;;;;;;;6.87;54.87;100056.41;5010323;28;20681;-65
2021/03/27 02:24:35;;;;;;;11.85;7.25;;;;;;;6.81;54.59;100039.94;5009804;28;20129;-66
2021/03/27 02:27:10;;;;;;;13.57;8.00;;;;;;;6.67;54.90;100038.97;5010312;28;20038;-66
2021/03/27 02:30:00;;;;;;;13.43;7.70;;;;;;;6.57;54.65;100020.06;5008854;28;20038;-66
2021/03/27 02:32:40;;;;;;;10.40;7.43;;;;;;;6.44;54.48;100001.31;5009706;28;20041;-64
2021/03/27 02:35:37;;;;;;;11.23;8.10;;;;;;;6.72;54.71;100042.19;5010559;28;20058;-65
2021/03/27 02:38:47;;;;;;;12.10;7.40;;;;;;;6.66;54.92;100047.91;5009913;28;20041;-67
2021/03/27 02:41:34;;;;;;;10.63;7.38;;;;;;;6.64;54.39;100047.16;5027009;28;20041;-65
2021/03/27 02:44:24;;;;;;;11.13;7.78;;;;;;;6.60;54.38;100045.63;5010304;28;20038;-64
2021/03/27 02:46:56;;;;;;;14.18;8.32;;;;;;;6.56;54.50;100046.75;5009913;28;20037;-63
2021/03/27 02:49:24;;;;;;;10.88;7.60;;;;;;;6.58;54.65;100050.19;5009383;28;20034;-65
2021/03/27 02:51:58;;;;;;;11.27;7.38;;;;;;;6.14;54.54;99980.09;5008688;28;20451;-64
2021/03/27 02:54:51;;;;;;;12.15;7.47;;;;;;;6.55;54.46;100053.03;5009691;28;20045;-65
2021/03/27 02:57:20;;;;;;;11.40;7.80;;;;;;;6.57;54.13;100059.13;5011993;28;20057;-67
2021/03/27 03:00:19;;;;;;;10.90;7.47;;;;;;;6.58;54.91;100052.84;5009937;28;20513;-65
2021/03/27 03:03:06;;;;;;;10.63;7.45;;;;;;;6.51;55.04;100060.34;5008402;28;20061;-66
2021/03/27 03:05:46;;;;;;;10.52;7.85;;;;;;;6.54;55.07;100056.66;5009707;28;20045;-65
2021/03/27 03:08:31;;;;;;;12.82;8.25;;;;;;;6.54;55.02;100068.13;5009490;28;20060;-65
2021/03/27 03:11:09;;;;;;;12.38;7.53;;;;;;;6.52;54.73;100063.88;5003020;28;20505;-65
2021/03/27 03:14:01;;;;;;;12.73;7.82;;;;;;;6.47;54.99;100059.66;5009239;28;20129;-64
2021/03/27 03:16:29;;;;;;;11.55;7.68;;;;;;;5.97;54.50;99991.69;5008897;28;20619;-63
2021/03/27 03:19:08;;;;;;;14.50;7.38;;;;;;;6.45;54.87;100061.53;5007921;28;20034;-67
2021/03/27 03:21:44;;;;;;;13.52;8.07;;;;;;;6.49;54.58;100066.69;5009107;28;20061;-67
2021/03/27 03:24:52;;;;;;;12.82;8.13;;;;;;;6.53;54.60;100068.22;5008633;28;20104;-65
2021/03/27 03:27:32;;;;;;;12.68;7.68;;;;;;;6.16;54.31;100016.28;5026864;28;20045;-66
2021/03/27 03:30:23;;;;;;;12.43;7.60;;;;;;;6.50;54.23;100073.72;5026150;28;20389;-65
2021/03/27 03:33:16;;;;;;;11.32;7.00;;;;;;;6.52;54.30;100079.81;5010053;28;20064;-63
2021/03/27 03:35:47;;;;;;;13.98;6.82;;;;;;;6.52;54.04;100088.66;5009108;28;20355;-63
2021/03/27 03:38:37;;;;;;;12.02;7.50;;;;;;;6.58;54.13;100071.47;5007863;28;20088;-63
2021/03/27 03:41:27;;;;;;;10.27;6.80;;;;;;;6.57;53.62;100072.41;5008860;28;20046;-64
2021/03/27 03:44:04;;;;;;;11.82;6.97;;;;;;;6.56;54.04;100082.19;5008572;28;20430;-63
2021/03/27 03:46:29;;;;;;;10.23;7.15;;;;;;;6.56;54.01;100076.03;5008619;28;20822;-64
2021/03/27 03:49:29;;;;;;;14.27;7.03;;;;;;;6.60;54.35;100083.72;5009334;28;20064;-65
2021/03/27 03:52:09;;;;;;;10.93;7.13;;;;;;;6.60;54.20;100096.16;5009006;28;20038;-64
2021/03/27 03:54:46;;;;;;;12.45;7.00;;;;;;;6.57;54.14;100096.38;5008610;28;20033;-64
2021/03/27 03:57:30;;;;;;;12.10;7.05;;;;;;;6.65;53.29;100082.59;5009118;28;20133;-64
2021/03/27 04:00:07;;;;;;;10.85;6.60;;;;;;;6.59;53.20;100084.66;5009053;28;20080;-64
2021/03/27 04:02:41;;;;;;;13.23;8.13;;;;;;;6.61;53.67;100089.91;5008850;28;20052;-65
2021/03/27 04:05:15;;;;;;;14.05;7.95;;;;;;;6.63;53.68;100093.31;5006273;28;20089;-63
2021/03/27 04:07:48;;;;;;;10.77;6.55;;;;;;;6.63;53.00;100090.66;5008793;28;20532;-63
2021/03/27 04:10:20;;;;;;;11.15;6.00;;;;;;;6.64;53.03;100097.69;5009006;28;20467;-63
2021/03/27 04:12:59;;;;;;;8.77;6.18;;;;;;;6.65;53.14;100102.06;5009110;28;20413;-65
2021/03/27 04:16:02;;;;;;;10.65;6.22;;;;;;;6.72;53.15;100098.09;5010995;28;20045;-64
2021/03/27 04:18:52;;;;;;;10.45;5.88;;;;;;;6.76;52.47;100101.44;5012846;28;20041;-61
2021/03/27 04:21:20;;;;;;;8.38;6.13;;;;;;;6.70;52.33;100107.97;5013440;28;20569;-63
2021/03/27 04:24:00;;;;;;;9.77;6.05;;;;;;;6.71;52.43;100107.00;5012378;28;20097;-63
2021/03/27 04:26:57;;;;;;;8.82;6.35;;;;;;;6.78;52.31;100110.16;5012355;28;20589;-62
2021/03/27 04:29:28;;;;;;;;;;;;;;;6.87;52.00;100114.09;5012920;28;20056;-63
2021/03/27 04:32:06;;;;;;;11.15;6.03;;;;;;;6.90;52.23;100113.91;5013072;28;19913;-63
2021/03/27 04:35:12;;;;;;;9.73;5.95;;;;;;;6.96;51.52;100113.50;5011947;28;20052;-63
2021/03/27 04:38:05;;;;;;;11.52;6.15;;;;;;;6.96;51.79;100118.84;5027917;28;20033;-64
2021/03/27 04:40:37;;;;;;;10.05;6.20;;;;;;;6.96;51.90;100118.84;5002546;28;20053;-64
2021/03/27 04:43:12;;;;;;;9.07;6.00;;;;;;;6.83;51.79;100099.25;5012330;28;20044;-63
2021/03/27 04:45:45;;;;;;;10.93;6.82;;;;;;;6.99;51.59;100118.69;5012204;28;20033;-64
2021/03/27 04:48:16;;;;;;;14.93;6.70;;;;;;;7.02;51.59;100115.81;5011921;28;20986;-65
2021/03/27 04:50:50;;;;;;;10.00;6.55;;;;;;;7.08;51.24;100122.56;5012088;28;20111;-65
2021/03/27 04:53:42;;;;;;;11.90;6.57;;;;;;;7.23;51.32;100130.56;5012439;28;20494;-66
2021/03/27 04:56:17;;;;;;;11.50;6.55;;;;;;;7.26;50.75;100130.38;4999176;28;20571;-64
2021/03/27 04:58:58;;;;;;;11.10;6.93;;;;;;;7.31;50.37;100129.13;5011292;28;20038;-63
2021/03/27 05:01:53;;;;;;;8.68;6.07;;;;;;;7.47;50.31;100133.50;5012140;28;20069;-63
2021/03/27 05:04:31;;;;;;;11.05;6.72;;;;;;;7.59;49.79;100132.72;5012262;28;20068;-63
2021/03/27 05:07:06;;;;;;;9.38;6.93;;;;;;;7.93;48.93;100129.72;5011792;28;20065;-63
2021/03/27 05:09:48;;;;;;;10.52;6.80;;;;;;;8.19;48.26;100138.66;5011722;28;20034;-64
2021/03/27 05:12:24;;;;;;;12.95;6.85;;;;;;;8.30;47.68;100142.44;5012051;28;20703;-68
2021/03/27 05:15:20;;;;;;;10.50;7.47;;;;;;;8.41;47.44;100131.91;5011768;28;20062;-64
2021/03/27 05:17:45;;;;;;;13.67;6.73;;;;;;;8.59;47.17;100137.88;5011611;28;20045;-63
2021/03/27 05:20:20;;;;;;;11.18;7.05;;;;;;;8.70;46.63;100142.50;5011759;28;20120;-64
2021/03/27 05:23:11;;;;;;;12.02;7.20;;;;;;;8.79;46.75;100148.16;5011342;28;20065;-68
2021/03/27 05:25:45;;;;;;;10.10;6.57;;;;;;;8.68;46.50;100125.72;5010727;28;20049;-65
2021/03/27 05:29:01;;;;;;;13.30;6.90;;;;;;;8.95;46.24;100150.63;5011591;28;20034;-67
2021/03/27 05:31:47;;;;;;;12.05;7.72;;;;;;;9.11;45.89;100153.97;5008920;28;20125;-66
2021/03/27 05:34:38;;;;;;;11.05;7.18;;;;;;;9.27;45.45;100155.53;5011409;28;20033;-67
2021/03/27 05:37:37;;;;;;;11.55;7.00;;;;;;;9.39;45.02;100153.81;5010729;28;20520;-67
2021/03/27 05:40:24;;;;;;;15.35;7.43;;;;;;;9.48;44.85;100162.06;5001133;28;20034;-71
2021/03/27 05:42:59;;;;;;;14.38;7.90;;;;;;;9.47;45.10;100175.53;5010115;28;20084;-68
2021/03/27 05:45:30;;;;;;;11.65;7.70;;;;;;;9.55;44.60;100167.00;5011068;28;20034;-65
2021/03/27 05:48:08;;;;;;;10.63;7.35;;;;;;;9.63;44.47;100169.97;5010447;28;20122;-67
2021/03/27 05:50:36;;;;;;;14.35;7.30;;;;;;;9.69;44.04;100171.34;5010997;28;20136;-67
2021/03/27 05:53:20;;;;;;;14.35;8.25;;;;;;;9.87;43.86;100169.16;5011018;28;20033;-65
2021/03/27 05:56:17;;;;;;;16.73;8.13;;;;;;;9.96;43.43;100167.66;4994972;28;20096;-71
2021/03/27 05:58:43;;;;;;;;;;;;;;;10.32;43.38;100172.13;5010673;28;20053;-66
2021/03/27 06:01:36;;;;;;;10.77;7.50;;;;;;;10.33;42.78;100175.63;5010839;28;19928;-67
2021/03/27 06:04:15;;;;;;;12.20;7.55;;;;;;;10.09;42.35;100122.97;5009799;28;20050;-67
2021/03/27 06:06:45;;;;;;;11.57;7.57;;;;;;;10.41;41.95;100173.28;5010784;28;20129;-67
2021/03/27 06:09:42;;;;;;;13.07;7.55;;;;;;;10.67;42.07;100188.34;5010421;28;20449;-66
2021/03/27 06:12:19;;;;;;;11.85;7.43;;;;;;;10.96;41.13;100185.28;5010291;28;20033;-67
2021/03/27 06:15:06;;;;;;;14.15;8.13;;;;;;;11.36;40.45;100178.69;5010280;28;20042;-68
2021/03/27 06:18:05;;;;;;;12.70;7.57;;;;;;;11.89;39.59;100178.91;5010915;28;20033;-66
2021/03/27 06:20:53;;;;;;;10.88;7.57;;;;;;;12.37;38.55;100181.41;5000250;28;20066;-67
2021/03/27 06:24:07;;;;;;;17.13;8.20;;;;;;;12.47;37.98;100118.75;5010471;28;20407;-67
2021/03/27 06:26:53;;;;;;;12.30;7.80;;;;;;;13.15;36.73;100183.84;5008047;28;20509;-68
2021/03/27 06:29:33;;;;;;;15.25;8.02;;;;;;;13.58;36.40;100185.53;5010348;28;20037;-70
2021/03/27 06:32:29;;;;;;;13.52;7.90;;;;;;;14.27;35.16;100177.66;5009438;28;20033;-68
2021/03/27 06:35:11;;;;;;;12.75;7.70;;;;;;;16.61;31.53;100183.53;5009526;28;20044;-68
2021/03/27 06:37:55;;;;;;;13.18;8.50;;;;;;;18.60;28.82;100174.63;5009482;28;20159;-67
2021/03/27 06:40:28;;;;;;;17.45;9.50;;;;;;;20.89;25.89;100162.50;5009875;28;20497;-64
2021/03/27 06:43:12;;;;;;;13.68;9.40;;;;;;;22.80;22.60;100180.13;5009633;28;20391;-70
2021/03/27 06:46:07;;;;;;;12.90;8.55;;;;;;;22.77;23.22;100178.63;5010020;28;20033;-66
2021/03/27 06:48:38;;;;;;;18.50;10.10;;;;;;;22.53;21.87;100189.94;5009918;28;20038;-68
2021/03/27 06:51:34;;;;;;;17.05;10.25;;;;;;;24.33;20.68;100177.72;5024891;28;20141;-69
2021/03/27 06:54:35;;;;;;;15.20;9.18;;;;;;;27.57;15.67;100186.53;5001724;28;20086;-68
2021/03/27 06:57:25;;;;;;;18.13;9.52;;;;;;;27.21;18.11;100188.97;5009996;28;20061;-68
2021/03/27 07:00:08;;;;;;;15.52;9.13;;;;;;;27.12;17.03;100189.47;5009748;28;20045;-66
2021/03/27 07:02:52;;;;;;;16.20;9.77;;;;;;;28.64;16.51;100186.25;5000211;28;20601;-69
2021/03/27 07:05:55;;;;;;;17.52;9.38;;;;;;;30.48;14.99;100194.53;5009785;28;20050;-66
2021/03/27 07:08:42;;;;;;;14.32;8.65;;;;;;;31.64;14.18;100186.78;5009947;28;20029;-70
2021/03/27 07:11:57;;;;;;;12.85;8.50;;;;;;;33.76;11.80;100185.19;5009189;28;20053;-68
2021/03/27 07:15:00;;;;;;;14.95;8.98;;;;;;;35.48;11.11;100203.81;5008940;28;20038;-65
2021/03/27 07:17:32;;;;;;;19.30;9.88;;;;;;;36.20;9.58;100200.00;5009234;28;20506;-70
2021/03/27 07:20:00;;;;;;;11.23;8.90;;;;;;;36.90;8.74;100191.72;5009482;28;20120;-69
2021/03/27 07:22:41;;;;;;;11.68;8.38;;;;;;;37.62;8.15;100188.25;5008968;28;20061;-66
2021/03/27 07:25:25;;;;;;;11.77;8.20;;;;;;;38.77;8.50;100187.53;5009258;28;20065;-70
2021/03/27 07:28:15;;;;;;;11.52;8.02;;;;;;;38.96;6.55;100197.88;5009662;28;20477;-68
2021/03/27 07:31:13;;;;;;;10.30;7.70;;;;;;;39.28;7.71;100199.81;5009484;28;20038;-71
2021/03/27 07:34:08;;;;;;;11.00;7.72;;;;;;;38.95;7.07;100194.25;5009282;28;20094;-69
2021/03/27 07:37:01;;;;;;;12.32;8.02;;;;;;;38.63;7.26;100198.69;5015114;28;20038;-69
2021/03/27 07:39:52;;;;;;;11.93;8.77;;;;;;;38.37;7.40;100196.25;5007364;28;20042;-70
2021/03/27 07:42:33;;;;;;;9.77;7.93;;;;;;;38.49;6.99;100198.63;5008202;28;20034;-68
2021/03/27 07:45:15;;;;;;;11.55;7.60;;;;;;;38.43;6.56;100203.41;5009507;28;20053;-69
2021/03/27 07:48:03;;;;;;;8.48;6.60;;;;;;;37.46;6.85;100206.28;5009717;28;20116;-70
2021/03/27 07:51:06;;;;;;;8.35;6.80;;;;;;;36.92;7.10;100203.44;5021534;28;20057;-72
2021/03/27 07:54:02;;;;;;;8.68;7.43;;;;;;;37.10;7.69;100203.84;5010747;28;20145;-68
2021/03/27 07:56:49;;;;;;;10.77;7.00;;;;;;;36.31;7.15;100203.56;5012840;28;20444;-69
2021/03/27 07:59:24;;;;;;;7.65;6.40;;;;;;;34.50;8.03;100203.84;5013213;28;20125;-69
2021/03/27 08:02:23;;;;;;;8.73;6.70;;;;;;;33.96;8.67;100205.88;5013716;28;20041;-69
2021/03/27 08:05:18;;;;;;;10.45;6.88;;;;;;;30.44;10.35;100213.56;5012763;28;20048;-66
2021/03/27 08:08:21;;;;;;;8.73;5.80;;;;;;;26.19;13.68;100229.13;5012354;28;20501;-67
2021/03/27 08:11:30;;;;;;;10.10;6.90;;;;;;;23.28;16.21;100230.56;5013018;28;20030;-70
2021/03/27 08:13:56;;;;;;;11.80;7.05;;;;;;;21.17;18.59;100236.25;5012601;28;20042;-65
2021/03/27 08:16:25;;;;;;;11.13;6.60;;;;;;;19.51;20.28;100252.47;5012703;28;20435;-66
2021/03/27 08:19:24;;;;;;;13.50;7.35;;;;;;;18.06;22.26;100250.88;5011340;28;20568;-66
2021/03/27 08:22:39;;;;;;;11.52;7.40;;;;;;;16.77;24.22;100216.13;5013236;28;20061;-65
2021/03/27 08:25:19;;;;;;;9.98;6.80;;;;;;;15.85;25.05;100199.88;5027467;28;20049;-68
2021/03/27 08:28:02;;;;;;;12.15;7.72;;;;;;;15.20;26.77;100216.88;5012018;28;20070;-69
2021/03/27 08:30:37;;;;;;;14.07;7.28;;;;;;;14.77;27.09;100213.63;5012303;28;20057;-67
2021/03/27 08:33:18;;;;;;;12.60;6.85;;;;;;;14.49;28.13;100214.28;5010253;28;20042;-70
2021/03/27 08:36:11;;;;;;;12.55;6.78;;;;;;;14.13;28.15;100221.16;5011632;28;20607;-69
2021/03/27 08:39:04;;;;;;;14.48;7.30;;;;;;;13.85;28.82;100208.31;5011609;28;20037;-64
2021/03/27 08:42:00;;;;;;;9.98;6.40;;;;;;;13.75;29.30;100205.56;5010492;28;20493;-68
2021/03/27 08:44:47;;;;;;;15.73;8.07;;;;;;;13.96;29.75;100201.97;5001751;28;20556;-64
2021/03/27 08:47:42;;;;;;;12.43;6.35;;;;;;;14.18;28.69;100216.22;5010587;28;20041;-66
2021/03/27 08:50:36;;;;;;;9.18;6.28;;;;;;;14.12;29.14;100209.53;5011518;28;20038;-65
2021/03/27 08:53:15;;;;;;;11.18;6.88;;;;;;;14.06;28.53;100212.78;5012513;28;20183;-61
2021/03/27 08:55:43;;;;;;;11.00;6.05;;;;;;;14.04;28.47;100204.00;5011438;28;20072;-65
2021/03/27 08:58:29;;;;;;;9.80;6.13;;;;;;;14.02;28.67;100205.97;5009001;28;20100;-66
2021/03/27 09:01:03;;;;;;;11.85;5.80;;;;;;;14.04;28.22;100198.59;5006146;28;20601;-66
2021/03/27 09:03:56;;;;;;;11.43;6.55;;;;;;;14.14;28.60;100217.47;5011048;28;20045;-65
2021/03/27 09:07:01;;;;;;;13.23;6.05;;;;;;;14.23;28.21;100211.25;4997697;28;20073;-58
2021/03/27 09:09:32;;;;;;;15.85;5.93;;;;;;;14.17;28.48;100215.34;5026986;28;20506;-62
2021/03/27 09:12:23;;;;;;;13.57;6.68;;;;;;;14.07;28.64;100203.72;5011087;28;20102;-65
2021/03/27 09:15:21;;;;;;;13.65;7.40;;;;;;;14.28;28.30;100222.47;5012152;28;20528;-65
2021/03/27 09:18:05;;;;;;;13.48;6.35;;;;;;;14.31;27.79;100211.41;5010509;28;20025;-61
2021/03/27 09:20:55;;;;;;;13.05;6.22;;;;;;;14.24;27.92;100225.59;5011489;28;20485;-63
2021/03/27 09:23:40;;;;;;;11.63;6.07;;;;;;;14.06;28.12;100185.84;5012853;28;20088;-61
2021/03/27 09:26:48;;;;;;;11.63;6.83;;;;;;;14.70;27.34;100213.28;5012402;28;20146;-63
2021/03/27 09:29:19;;;;;;;13.40;6.40;;;;;;;14.84;27.21;100216.59;5012214;28;21280;-63
2021/03/27 09:32:03;;;;;;;10.07;5.90;;;;;;;14.86;27.03;100225.41;5013428;28;20123;-63
2021/03/27 09:34:49;;;;;;;13.50;5.60;;;;;;;14.92;27.11;100216.72;5011902;28;20041;-63
2021/03/27 09:38:05;;;;;;;11.23;5.90;;;;;;;14.74;27.06;100222.84;5011610;28;20034;-64
2021/03/27 09:40:56;;;;;;;11.63;5.85;;;;;;;14.52;27.48;100237.38;5039340;28;20038;-63
2021/03/27 09:43:50;;;;;;;11.20;5.95;;;;;;;14.44;27.54;100224.63;5009860;28;20084;-64
2021/03/27 09:46:20;;;;;;;13.88;6.13;;;;;;;14.62;27.63;100223.94;5009485;28;20050;-63
2021/03/27 09:49:37;;;;;;;10.82;6.38;;;;;;;14.97;27.19;100216.31;5009822;28;20038;-62
2021/03/27 09:52:32;;;;;;;14.00;6.43;;;;;;;15.13;27.03;100215.72;5026669;28;20063;-63
2021/03/27 09:55:14;;;;;;;13.40;6.28;;;;;;;15.12;26.69;100217.59;5027998;28;20471;-64
2021/03/27 09:58:07;;;;;;;9.90;5.88;;;;;;;15.09;26.69;100223.28;5013976;28;20046;-63
2021/03/27 10:00:41;;;;;;;11.00;6.38;;;;;;;14.73;26.90;100229.25;5012404;28;20030;-62
2021/03/27 10:03:49;;;;;;;11.32;6.70;;;;;;;14.76;27.36;100225.38;5012027;28;20045;-65
2021/03/27 10:06:49;;;;;;;12.13;6.35;;;;;;;15.01;26.89;100223.13;5009848;28;20046;-64
2021/03/27 10:09:31;;;;;;;9.20;5.90;;;;;;;15.14;26.33;100220.13;5011870;28;20041;-64
2021/03/27 10:12:13;;;;;;;10.15;5.53;;;;;;;15.13;26.39;100232.78;5010872;28;20053;-63
2021/03/27 10:15:01;;;;;;;11.35;6.15;;;;;;;14.43;26.63;100195.13;5010658;28;20044;-64
2021/03/27 10:17:33;;;;;;;12.32;7.28;;;;;;;14.20;27.30;100233.91;5010234;28;20038;-62
2021/03/27 10:20:23;;;;;;;13.27;6.70;;;;;;;14.00;27.61;100245.63;5011434;28;20406;-65
2021/03/27 10:23:09;;;;;;;11.48;6.05;;;;;;;13.67;27.82;100183.03;5011399;28;20108;-63
2021/03/27 10:25:43;;;;;;;14.52;6.90;;;;;;;13.96;27.71;100250.44;5013208;28;20041;-63
2021/03/27 10:28:25;;;;;;;12.10;6.68;;;;;;;13.84;27.77;100249.66;5011001;28;20497;-63
2021/03/27 10:31:00;;;;;;;10.98;6.85;;;;;;;13.60;28.22;100244.56;5011157;28;20069;-62
2021/03/27 10:33:45;;;;;;;13.37;6.50;;;;;;;13.54;28.53;100247.81;5011163;28;20095;-63
2021/03/27 10:36:35;;;;;;;14.00;7.15;;;;;;;13.43;28.58;100246.91;5010142;28;20280;-65
2021/03/27 10:39:12;;;;;;;12.40;7.25;;;;;;;13.20;28.81;100233.56;5011301;28;20394;-63
2021/03/27 10:41:38;;;;;;;13.95;7.57;;;;;;;13.18;29.08;100235.53;5011293;28;20068;-63
2021/03/27 10:44:45;;;;;;;12.60;7.22;;;;;;;13.50;28.86;100255.28;5010487;28;20048;-65
2021/03/27 10:47:23;;;;;;;14.30;7.75;;;;;;;13.47;28.53;100250.16;5006755;28;20042;-64
2021/03/27 10:50:07;;;;;;;15.55;7.38;;;;;;;13.27;28.60;100255.41;5010978;28;20132;-63
2021/03/27 10:53:05;;;;;;;12.98;6.97;;;;;;;13.15;29.02;100254.63;5011214;28;20037;-63
2021/03/27 10:55:51;;;;;;;13.27;6.82;;;;;;;12.96;29.42;100251.78;5010390;28;20048;-62
2021/03/27 10:58:29;;;;;;;13.35;7.07;;;;;;;12.88;29.82;100252.41;5010330;28;20078;-64
2021/03/27 11:01:18;;;;;;;12.52;7.35;;;;;;;12.77;29.79;100250.63;5009828;28;20433;-63
2021/03/27 11:04:02;;;;;;;18.77;7.20;;;;;;;12.74;30.20;100254.41;5010822;28;20369;-64
2021/03/27 11:06:56;;;;;;;16.20;7.30;;;;;;;12.59;30.33;100251.16;5010392;28;20476;-64
2021/03/27 11:09:27;;;;;;;14.07;6.80;;;;;;;12.45;30.12;100254.97;5010085;28;20489;-65
2021/03/27 11:12:11;;;;;;;13.30;7.28;;;;;;;12.40;30.61;100259.88;5011413;28;20073;-63
2021/03/27 11:15:30;;;;;;;12.02;6.97;;;;;;;12.38;30.49;100255.59;5011050;28;20405;-64
2021/03/27 11:18:32;;;;;;;16.75;7.75;;;;;;;12.44;30.80;100258.66;5028362;28;20159;-63
2021/03/27 11:21:31;;;;;;;14.77;7.55;;;;;;;12.60;30.30;100246.66;5028690;28;20174;-64
2021/03/27 11:24:18;;;;;;;16.67;7.38;;;;;;;12.71;30.51;100260.03;5008414;28;20049;-62
2021/03/27 11:27:16;;;;;;;12.32;7.15;;;;;;;12.71;29.28;100237.72;5007061;28;20440;-62
2021/03/27 11:29:55;;;;;;;11.77;5.47;;;;;;;12.79;28.32;100256.72;5010717;28;20541;-63
2021/03/27 11:32:29;;;;;;;9.55;4.10;;;;;;;12.95;27.83;100245.53;5009680;28;20543;-64
2021/03/27 11:35:19;;;;;;;10.00;4.97;;;;;;;12.89;28.19;100265.69;5009877;28;20433;-63
2021/03/27 11:37:51;;;;;;;11.35;5.95;;;;;;;12.85;28.24;100248.13;5010623;28;20034;-63
2021/03/27 11:40:32;;;;;;;13.07;6.43;;;;;;;12.81;28.98;100261.97;5011001;28;20048;-65
2021/03/27 11:43:12;;;;;;;13.20;6.97;;;;;;;12.80;29.20;100260.28;5011158;28;20041;-65
2021/03/27 11:45:59;;;;;;;12.48;6.78;;;;;;;12.72;29.30;100261.75;5010623;28;20041;-65
2021/03/27 11:48:42;;;;;;;;;;;;;;;12.86;29.13;100262.44;5010314;28;20029;-63
2021/03/27 11:51:28;;;;;;;17.08;6.50;;;;;;;12.56;29.86;100266.69;5010814;28;19928;-63
2021/03/27 11:54:20;;;;;;;17.15;6.90;;;;;;;12.38;30.39;100261.84;5010504;28;20119;-62
2021/03/27 11:57:10;;;;;;;9.85;5.97;;;;;;;12.47;30.25;100274.50;5010490;28;20565;-63
2021/03/27 12:03:11;;;;;;;12.52;5.55;;;;;;;12.67;29.43;100272.03;5010709;28;20042;-62
2021/03/27 12:05:43;;;;;;;7.35;4.45;;;;;;;12.53;28.69;100269.59;5010296;28;20034;-63
2021/03/27 12:08:42;;;;;;;7.43;4.50;;;;;;;12.38;28.94;100272.59;5009047;28;20049;-63
2021/03/27 12:11:17;;;;;;;7.78;4.57;;;;;;;12.32;28.89;100270.41;5010181;28;20026;-63
2021/03/27 12:14:04;;;;;;;11.68;5.00;;;;;;;12.37;29.13;100268.19;5010261;28;20052;-63
2021/03/27 12:17:25;;;;;;;9.63;4.50;;;;;;;12.46;29.12;100275.47;5010453;28;20062;-62
2021/03/27 12:20:18;;;;;;;8.32;4.07;;;;;;;12.44;29.18;100269.38;5006575;28;20050;-63
2021/03/27 12:22:52;;;;;;;8.80;4.40;;;;;;;12.43;29.32;100261.47;5009941;28;20208;-64
2021/03/27 12:25:46;;;;;;;10.68;5.10;;;;;;;12.48;29.59;100265.47;5010236;28;20053;-62
2021/03/27 12:28:51;;;;;;;11.88;5.32;;;;;;;12.44;29.92;100263.19;5010097;28;20061;-63
2021/03/27 12:31:33;;;;;;;12.55;5.13;;;;;;;12.43;30.31;100270.38;5008895;28;20034;-64
2021/03/27 12:34:46;;;;;;;10.15;5.07;;;;;;;12.46;30.11;100267.44;5010735;28;20458;-64
2021/03/27 12:37:29;;;;;;;8.63;4.30;;;;;;;12.54;29.64;100272.19;5016805;28;20077;-64
2021/03/27 12:40:16;;;;;;;8.50;4.68;;;;;;;12.65;29.91;100265.94;5012324;28;20096;-65
2021/03/27 12:42:57;;;;;;;11.05;4.60;;;;;;;12.67;29.77;100272.03;5013452;28;20127;-63
2021/03/27 12:45:31;;;;;;;9.95;4.93;;;;;;;12.61;29.75;100262.63;5013332;28;20044;-63
2021/03/27 12:48:01;;;;;;;11.38;4.13;;;;;;;12.63;29.58;100281.31;5012790;28;20413;-63